createdAt,value
2018-11-28T00:00:37.481Z,-1.37
2018-11-28T00:03:08.631Z,-1.39
2018-11-28T00:05:37.182Z,-1.42
2018-11-28T00:08:05.652Z,-1.45
2018-11-28T00:10:34.147Z,-1.46
2018-11-28T00:13:02.604Z,-1.49
2018-11-28T00:15:31.135Z,-1.50
2018-11-28T00:17:59.619Z,-1.56
2018-11-28T00:20:28.096Z,-1.54
2018-11-28T00:22:56.549Z,-1.55
2018-11-28T00:25:25.043Z,-1.58
2018-11-28T00:27:53.509Z,-1.60
2018-11-28T00:30:23.197Z,-1.63
2018-11-28T00:32:51.775Z,-1.67
2018-11-28T00:35:21.347Z,-1.70
2018-11-28T00:37:49.815Z,-1.76
2018-11-28T00:40:19.485Z,-1.80
2018-11-28T00:42:48.005Z,-1.84
2018-11-28T00:45:18.996Z,-1.87
2018-11-28T00:47:47.543Z,-1.92
2018-11-28T00:50:17.948Z,-1.98
2018-11-28T00:52:46.516Z,-2.03
2018-11-28T00:55:15.859Z,-2.08
2018-11-28T00:57:44.503Z,-2.14
2018-11-28T01:00:16.128Z,-2.18
2018-11-28T01:02:44.577Z,-2.22
2018-11-28T01:05:13.671Z,-2.25
2018-11-28T01:07:42.634Z,-2.25
2018-11-28T01:10:13.355Z,-2.26
2018-11-28T01:12:41.826Z,-2.27
2018-11-28T01:15:11.550Z,-2.30
2018-11-28T01:17:40.063Z,-2.32
2018-11-28T01:20:12.109Z,-2.34
2018-11-28T01:22:40.631Z,-2.37
2018-11-28T01:25:11.319Z,-2.39
2018-11-28T01:27:39.859Z,-2.41
2018-11-28T01:30:13.441Z,-2.44
2018-11-28T01:32:41.896Z,-2.44
2018-11-28T01:35:11.309Z,-2.44
2018-11-28T01:37:40.036Z,-2.46
2018-11-28T01:40:11.112Z,-2.47
2018-11-28T01:42:39.653Z,-2.47
2018-11-28T01:45:09.309Z,-2.48
2018-11-28T01:47:37.819Z,-2.48
2018-11-28T01:50:08.429Z,-2.49
2018-11-28T01:52:36.907Z,-2.50
2018-11-28T01:55:07.056Z,-2.51
2018-11-28T01:57:35.542Z,-2.52
2018-11-28T02:00:04.532Z,-2.53
2018-11-28T02:02:33.032Z,-2.54
2018-11-28T02:05:01.479Z,-2.57
2018-11-28T02:07:29.946Z,-2.57
2018-11-28T02:09:58.371Z,-2.58
2018-11-28T02:12:26.823Z,-2.61
2018-11-28T02:14:55.309Z,-2.63
2018-11-28T02:17:23.803Z,-2.66
2018-11-28T02:19:52.254Z,-2.67
2018-11-28T02:22:20.768Z,-2.68
2018-11-28T02:24:49.233Z,-2.71
2018-11-28T02:27:17.740Z,-2.73
2018-11-28T02:29:46.192Z,-2.75
2018-11-28T02:32:14.705Z,-2.78
2018-11-28T02:34:43.165Z,-2.82
2018-11-28T02:37:11.675Z,-2.84
2018-11-28T02:39:40.122Z,-2.87
2018-11-28T02:42:08.581Z,-2.90
2018-11-28T02:44:37.097Z,-2.93
2018-11-28T02:47:05.706Z,-2.96
2018-11-28T02:49:34.160Z,-2.98
2018-11-28T02:52:17.908Z,-3.03
2018-11-28T02:54:46.338Z,-3.08
2018-11-28T02:57:14.794Z,-3.10
2018-11-28T02:59:43.229Z,-3.17
2018-11-28T03:02:11.687Z,-3.19
2018-11-28T03:04:40.209Z,-3.24
2018-11-28T03:07:08.663Z,-3.27
2018-11-28T03:09:37.097Z,-3.31
2018-11-28T03:12:05.592Z,-3.32
2018-11-28T03:14:34.237Z,-3.36
2018-11-28T03:17:02.744Z,-3.40
2018-11-28T03:19:31.204Z,-3.42
2018-11-28T03:21:59.695Z,-3.47
2018-11-28T03:24:28.132Z,-3.49
2018-11-28T03:26:56.600Z,-3.52
2018-11-28T03:29:25.036Z,-3.53
2018-11-28T03:31:53.505Z,-3.56
2018-11-28T03:34:21.899Z,-3.57
2018-11-28T03:36:50.322Z,-3.58
2018-11-28T03:39:18.776Z,-3.60
2018-11-28T03:41:47.207Z,-3.61
2018-11-28T03:44:15.737Z,-3.65
2018-11-28T03:46:44.172Z,-3.66
2018-11-28T03:49:12.689Z,-3.68
2018-11-28T03:51:41.158Z,-3.70
2018-11-28T03:54:09.660Z,-3.72
2018-11-28T03:56:38.097Z,-3.74
2018-11-28T03:59:06.728Z,-3.76
2018-11-28T04:01:35.153Z,-3.79
2018-11-28T04:04:03.706Z,-3.81
2018-11-28T04:06:32.153Z,-3.85
2018-11-28T04:09:00.647Z,-3.88
2018-11-28T04:11:29.111Z,-3.89
2018-11-28T04:13:57.624Z,-3.93
2018-11-28T04:16:26.082Z,-3.94
2018-11-28T04:18:54.588Z,-3.97
2018-11-28T04:21:23.028Z,-3.97
2018-11-28T04:23:51.539Z,-3.98
2018-11-28T04:26:19.963Z,-3.99
2018-11-28T04:28:48.420Z,-4.01
2018-11-28T04:31:16.975Z,-4.02
2018-11-28T04:33:45.432Z,-4.04
2018-11-28T04:36:13.933Z,-4.03
2018-11-28T04:38:42.388Z,-4.02
2018-11-28T04:41:10.910Z,-4.00
2018-11-28T04:43:39.408Z,-3.98
2018-11-28T04:46:07.850Z,-3.97
2018-11-28T04:48:36.363Z,-3.95
2018-11-28T04:51:04.824Z,-3.92
2018-11-28T04:53:33.332Z,-3.90
2018-11-28T04:56:01.787Z,-3.88
2018-11-28T04:58:30.235Z,-3.86
2018-11-28T05:00:58.764Z,-3.83
2018-11-28T05:03:27.262Z,-3.77
2018-11-28T05:05:55.729Z,-3.73
2018-11-28T05:08:24.229Z,-3.68
2018-11-28T05:10:52.747Z,-3.62
2018-11-28T05:13:21.216Z,-3.57
2018-11-28T05:15:49.651Z,-3.51
2018-11-28T05:18:18.032Z,-3.44
2018-11-28T05:20:46.532Z,-3.39
2018-11-28T05:23:14.967Z,-3.34
2018-11-28T05:25:43.500Z,-3.31
2018-11-28T05:28:11.963Z,-3.26
2018-11-28T05:30:40.595Z,-3.22
2018-11-28T05:33:09.033Z,-3.16
2018-11-28T05:35:38.754Z,-3.12
2018-11-28T05:38:08.851Z,-3.07
2018-11-28T05:40:37.364Z,-3.04
2018-11-28T05:43:06.235Z,-3.01
2018-11-28T05:45:34.740Z,-3.00
2018-11-28T05:48:03.185Z,-2.97
2018-11-28T05:50:31.691Z,-2.97
2018-11-28T05:53:00.165Z,-2.97
2018-11-28T05:55:28.664Z,-2.97
2018-11-28T05:57:57.103Z,-2.97
2018-11-28T06:00:31.300Z,-2.96
2018-11-28T06:02:59.828Z,-2.96
2018-11-28T06:05:28.228Z,-2.96
2018-11-28T06:07:56.596Z,-2.94
2018-11-28T06:10:24.987Z,-2.92
2018-11-28T06:12:53.453Z,-2.89
2018-11-28T06:15:21.847Z,-2.86
2018-11-28T06:17:50.257Z,-2.80
2018-11-28T06:20:18.622Z,-2.77
2018-11-28T06:22:47.010Z,-2.71
2018-11-28T06:25:16.873Z,-2.67
2018-11-28T06:27:44.926Z,-2.62
2018-11-28T06:30:14.427Z,-2.56
2018-11-28T06:32:42.965Z,-2.50
2018-11-28T06:35:11.747Z,-2.43
2018-11-28T06:37:40.332Z,-2.36
2018-11-28T06:40:12.841Z,-2.31
2018-11-28T06:42:41.323Z,-2.26
2018-11-28T06:45:12.097Z,-2.22
2018-11-28T06:47:40.715Z,-2.20
2018-11-28T06:50:11.751Z,-2.14
2018-11-28T06:52:40.207Z,-2.10
2018-11-28T06:55:10.561Z,-2.06
2018-11-28T06:57:39.058Z,-2.04
2018-11-28T07:00:13.305Z,-2.00
2018-11-28T07:02:42.051Z,-1.96
2018-11-28T07:05:11.024Z,-1.92
2018-11-28T07:07:39.528Z,-1.88
2018-11-28T07:10:09.943Z,-1.84
2018-11-28T07:12:38.395Z,-1.81
2018-11-28T07:15:09.140Z,-1.79
2018-11-28T07:17:37.659Z,-1.75
2018-11-28T07:20:07.231Z,-1.73
2018-11-28T07:22:35.744Z,-1.69
2018-11-28T07:25:04.703Z,-1.63
2018-11-28T07:27:33.207Z,-1.58
2018-11-28T07:30:01.804Z,-1.52
2018-11-28T07:32:30.239Z,-1.46
2018-11-28T07:34:58.695Z,-1.42
2018-11-28T07:37:27.245Z,-1.37
2018-11-28T07:39:55.756Z,-1.32
2018-11-28T07:42:24.198Z,-1.27
2018-11-28T07:44:52.695Z,-1.23
2018-11-28T07:47:21.167Z,-1.18
2018-11-28T07:49:49.654Z,-1.13
2018-11-28T07:52:18.115Z,-1.08
2018-11-28T07:54:46.619Z,-1.04
2018-11-28T07:57:15.132Z,-0.99
2018-11-28T07:59:43.696Z,-0.96
2018-11-28T08:02:12.161Z,-0.90
2018-11-28T08:04:40.579Z,-0.84
2018-11-28T08:07:09.124Z,-0.77
2018-11-28T08:09:37.526Z,-0.71
2018-11-28T08:12:06.463Z,-0.64
2018-11-28T08:14:34.895Z,-0.56
2018-11-28T08:17:03.260Z,-0.49
2018-11-28T08:19:31.637Z,-0.41
2018-11-28T08:22:00.003Z,-0.36
2018-11-28T08:24:28.435Z,-0.31
2018-11-28T08:26:56.878Z,-0.28
2018-11-28T08:29:25.280Z,-0.25
2018-11-28T08:31:53.719Z,-0.22
2018-11-28T08:34:23.570Z,-0.18
2018-11-28T08:36:50.744Z,-0.15
2018-11-28T08:39:19.199Z,-0.12
2018-11-28T08:41:47.659Z,-0.09
2018-11-28T08:44:16.079Z,-0.05
2018-11-28T08:46:44.518Z,-0.01
2018-11-28T08:49:12.907Z,0.05
2018-11-28T08:51:41.312Z,0.12
2018-11-28T08:54:09.772Z,0.19
2018-11-28T08:56:38.163Z,0.25
2018-11-28T08:59:06.761Z,0.32
2018-11-28T09:01:35.241Z,0.40
2018-11-28T09:04:03.713Z,0.52
2018-11-28T09:06:32.100Z,0.62
2018-11-28T09:09:00.567Z,0.74
2018-11-28T09:11:28.951Z,0.84
2018-11-28T09:13:57.311Z,0.93
2018-11-28T09:16:25.741Z,1.02
2018-11-28T09:18:54.226Z,1.11
2018-11-28T09:21:22.615Z,1.20
2018-11-28T09:23:51.048Z,1.25
2018-11-28T09:26:19.539Z,1.33
2018-11-28T09:28:48.393Z,1.38
2018-11-28T09:31:17.043Z,1.43
2018-11-28T09:33:45.403Z,1.48
2018-11-28T09:36:13.888Z,1.54
2018-11-28T09:38:42.248Z,1.58
2018-11-28T09:41:10.636Z,1.62
2018-11-28T09:43:38.995Z,1.68
2018-11-28T09:46:07.528Z,1.72
2018-11-28T09:48:35.968Z,1.76
2018-11-28T09:51:04.328Z,1.80
2018-11-28T09:53:32.745Z,1.84
2018-11-28T09:56:01.116Z,1.86
2018-11-28T09:58:29.527Z,1.89
2018-11-28T10:00:57.972Z,1.93
2018-11-28T10:03:26.358Z,1.96
2018-11-28T10:05:54.729Z,1.99
2018-11-28T10:08:23.114Z,2.02
2018-11-28T10:10:51.671Z,2.06
2018-11-28T10:13:20.087Z,2.09
2018-11-28T10:15:48.443Z,2.13
2018-11-28T10:18:16.852Z,2.15
2018-11-28T10:20:45.220Z,2.19
2018-11-28T10:23:13.617Z,2.23
2018-11-28T10:25:41.967Z,2.26
2018-11-28T10:28:10.414Z,2.29
2018-11-28T10:30:39.447Z,2.32
2018-11-28T10:33:12.140Z,2.36
2018-11-28T10:35:41.241Z,2.39
2018-11-28T10:38:09.852Z,2.43
2018-11-28T10:40:38.487Z,2.46
2018-11-28T10:43:08.083Z,2.49
2018-11-28T10:45:37.145Z,2.52
2018-11-28T10:48:06.500Z,2.53
2018-11-28T10:50:36.440Z,2.55
2018-11-28T10:53:04.812Z,2.59
2018-11-28T10:55:33.304Z,2.62
2018-11-28T10:58:01.764Z,2.63
2018-11-28T11:01:34.947Z,2.66
2018-11-28T11:04:08.696Z,2.67
2018-11-28T11:07:43.304Z,2.70
2018-11-28T11:10:16.942Z,2.72
2018-11-28T11:12:50.739Z,2.73
2018-11-28T11:15:19.223Z,2.75
2018-11-28T11:17:47.583Z,2.78
2018-11-28T11:20:15.946Z,2.81
2018-11-28T11:22:44.372Z,2.84
2018-11-28T11:25:12.808Z,2.87
2018-11-28T11:27:41.182Z,2.90
2018-11-28T11:30:10.822Z,2.91
2018-11-28T11:32:39.207Z,2.94
2018-11-28T11:35:09.078Z,2.97
2018-11-28T11:37:37.695Z,3.00
2018-11-28T11:40:11.715Z,3.03
2018-11-28T11:42:40.183Z,3.05
2018-11-28T11:45:14.492Z,3.08
2018-11-28T11:47:43.196Z,3.08
2018-11-28T11:50:14.723Z,3.10
2018-11-28T11:52:43.239Z,3.12
2018-11-28T11:55:17.740Z,3.15
2018-11-28T11:57:46.443Z,3.17
2018-11-28T12:00:17.245Z,3.18
2018-11-28T12:02:49.760Z,3.20
2018-11-28T12:05:18.211Z,3.22
2018-11-28T12:07:46.598Z,3.22
2018-11-28T12:10:15.155Z,3.23
2018-11-28T12:12:43.540Z,3.23
2018-11-28T12:15:15.022Z,3.22
2018-11-28T12:17:46.594Z,3.23
2018-11-28T12:20:21.100Z,3.22
2018-11-28T12:22:49.477Z,3.24
2018-11-28T12:25:17.853Z,3.26
2018-11-28T12:27:46.233Z,3.26
2018-11-28T12:30:15.358Z,3.26
2018-11-28T12:32:44.460Z,3.27
2018-11-28T12:35:18.023Z,3.28
2018-11-28T12:37:46.479Z,3.28
2018-11-28T12:40:15.704Z,3.29
2018-11-28T12:42:45.656Z,3.28
2018-11-28T12:45:16.874Z,3.27
2018-11-28T12:47:46.190Z,3.31
2018-11-28T12:50:24.844Z,3.31
2018-11-28T12:52:54.215Z,3.30
2018-11-28T12:55:23.090Z,3.32
2018-11-28T12:57:52.534Z,3.32
2018-11-28T13:00:23.928Z,3.32
2018-11-28T13:02:52.303Z,3.31
2018-11-28T13:05:21.779Z,3.30
2018-11-28T13:07:50.156Z,3.31
2018-11-28T13:10:19.848Z,3.32
2018-11-28T13:12:49.007Z,3.31
2018-11-28T13:15:18.462Z,3.31
2018-11-28T13:17:46.923Z,3.28
2018-11-28T13:20:16.360Z,3.27
2018-11-28T13:22:45.387Z,3.27
2018-11-28T13:25:15.026Z,3.24
2018-11-28T13:27:43.715Z,3.23
2018-11-28T13:30:17.108Z,3.20
2018-11-28T13:32:45.891Z,3.18
2018-11-28T13:35:15.331Z,3.15
2018-11-28T13:37:44.903Z,3.13
2018-11-28T13:40:14.344Z,3.11
2018-11-28T13:42:42.993Z,3.08
2018-11-28T13:45:21.064Z,3.05
2018-11-28T13:47:52.344Z,3.02
2018-11-28T13:50:20.752Z,2.99
2018-11-28T13:52:49.543Z,2.93
2018-11-28T13:55:41.948Z,2.91
2018-11-28T13:57:53.952Z,2.85
2018-11-28T14:00:22.447Z,2.80
2018-11-28T14:02:50.811Z,2.77
2018-11-28T14:05:19.215Z,2.72
2018-11-28T14:07:47.716Z,2.67
2018-11-28T14:10:16.280Z,2.63
2018-11-28T14:12:44.680Z,2.58
2018-11-28T14:15:17.032Z,2.53
2018-11-28T14:17:47.874Z,2.48
2018-11-28T14:20:16.329Z,2.43
2018-11-28T14:22:44.732Z,2.38
2018-11-28T14:25:13.995Z,2.34
2018-11-28T14:27:42.724Z,2.28
2018-11-28T14:30:18.275Z,2.23
2018-11-28T14:32:47.052Z,2.18
2018-11-28T14:35:15.703Z,2.13
2018-11-28T14:37:44.212Z,2.08
2018-11-28T14:40:20.511Z,2.04
2018-11-28T14:42:52.247Z,2.00
2018-11-28T14:45:20.816Z,1.94
2018-11-28T14:47:50.053Z,1.89
2018-11-28T14:50:21.488Z,1.85
2018-11-28T14:52:50.075Z,1.78
2018-11-28T14:55:20.582Z,1.73
2018-11-28T14:57:49.001Z,1.69
2018-11-28T15:00:19.476Z,1.65
2018-11-28T15:02:50.134Z,1.61
2018-11-28T15:07:01.059Z,1.57
2018-11-28T15:09:36.248Z,1.49
2018-11-28T15:12:11.634Z,1.44
2018-11-28T15:14:35.936Z,1.40
2018-11-28T15:17:04.315Z,1.36
2018-11-28T15:19:32.692Z,1.31
2018-11-28T15:22:01.099Z,1.28
2018-11-28T15:24:29.627Z,1.25
2018-11-28T15:26:57.995Z,1.22
2018-11-28T15:29:26.403Z,1.20
2018-11-28T15:31:54.856Z,1.18
2018-11-28T15:34:23.342Z,1.14
2018-11-28T15:36:51.714Z,1.13
2018-11-28T15:39:20.091Z,1.11
2018-11-28T15:41:48.452Z,1.08
2018-11-28T15:44:16.866Z,1.06
2018-11-28T15:46:45.259Z,1.05
2018-11-28T15:49:13.734Z,1.19
2018-11-28T15:51:42.171Z,1.28
2018-11-28T15:54:10.551Z,1.30
2018-11-28T15:56:38.944Z,1.28
2018-11-28T15:59:07.746Z,1.22
2018-11-28T16:01:36.123Z,1.18
2018-11-28T16:04:04.617Z,1.13
2018-11-28T16:06:33.068Z,1.07
2018-11-28T16:09:01.471Z,1.04
2018-11-28T16:11:29.826Z,0.98
2018-11-28T16:13:58.251Z,0.94
2018-11-28T16:16:26.616Z,0.89
2018-11-28T16:18:57.831Z,0.85
2018-11-28T16:21:23.636Z,0.83
2018-11-28T16:23:52.667Z,0.79
2018-11-28T16:26:20.439Z,0.77
2018-11-28T16:28:48.899Z,0.80
2018-11-28T16:31:17.408Z,0.81
2018-11-28T16:33:45.763Z,0.80
2018-11-28T16:36:14.184Z,0.78
2018-11-28T16:38:42.624Z,0.76
2018-11-28T16:41:11.026Z,0.76
2018-11-28T16:43:39.491Z,0.73
2018-11-28T16:46:07.883Z,0.71
2018-11-28T16:48:36.360Z,0.71
2018-11-28T16:51:04.752Z,0.70
2018-11-28T16:53:33.207Z,0.69
2018-11-28T16:56:01.612Z,0.67
2018-11-28T16:58:30.068Z,0.67
2018-11-28T17:00:58.469Z,0.64
2018-11-28T17:03:26.936Z,0.63
2018-11-28T17:05:55.328Z,0.62
2018-11-28T17:08:23.782Z,0.60
2018-11-28T17:10:52.196Z,0.60
2018-11-28T17:13:20.595Z,0.61
2018-11-28T17:15:49.063Z,0.60
2018-11-28T17:18:17.560Z,0.60
2018-11-28T17:20:46.015Z,0.58
2018-11-28T17:23:14.371Z,0.56
2018-11-28T17:25:42.780Z,0.57
2018-11-28T17:28:11.235Z,0.57
2018-11-28T17:30:39.742Z,0.57
2018-11-28T17:33:08.143Z,0.57
2018-11-28T17:35:36.588Z,0.59
2018-11-28T17:38:05.095Z,0.60
2018-11-28T17:40:33.551Z,0.61
2018-11-28T17:43:01.948Z,0.61
2018-11-28T17:45:30.613Z,0.62
2018-11-28T17:47:59.024Z,0.62
2018-11-28T17:50:27.699Z,0.63
2018-11-28T17:53:00.920Z,0.65
2018-11-28T17:55:30.876Z,0.66
2018-11-28T17:57:59.294Z,0.68
2018-11-28T18:00:27.660Z,0.68
2018-11-28T18:02:56.043Z,0.70
2018-11-28T18:05:24.403Z,0.71
2018-11-28T18:07:52.791Z,0.72
2018-11-28T18:10:21.994Z,0.71
2018-11-28T18:13:02.385Z,0.72
2018-11-28T18:15:30.742Z,0.71
2018-11-28T18:17:59.130Z,0.70
2018-11-28T18:20:27.596Z,0.70
2018-11-28T18:22:55.991Z,0.69
2018-11-28T18:25:25.492Z,0.70
2018-11-28T18:27:53.971Z,0.69
2018-11-28T18:30:22.356Z,0.68
2018-11-28T18:32:50.753Z,0.67
2018-11-28T18:35:19.134Z,0.66
2018-11-28T18:37:47.579Z,0.66
2018-11-28T18:40:15.992Z,0.64
2018-11-28T18:42:44.431Z,0.63
2018-11-28T18:45:15.091Z,0.64
2018-11-28T18:47:43.456Z,0.63
2018-11-28T18:50:12.698Z,0.65
2018-11-28T18:52:41.128Z,0.64
2018-11-28T18:55:16.602Z,0.68
2018-11-28T18:57:41.993Z,0.82
2018-11-28T19:00:19.681Z,0.95
2018-11-28T19:02:48.085Z,1.05
2018-11-28T19:05:16.570Z,1.11
2018-11-28T19:07:45.027Z,1.15
2018-11-28T19:10:15.458Z,1.24
2018-11-28T19:12:43.844Z,1.29
2018-11-28T19:15:18.158Z,1.33
2018-11-28T19:17:47.152Z,1.39
2018-11-28T19:20:19.546Z,1.46
2018-11-28T19:22:48.526Z,1.55
2018-11-28T19:25:17.935Z,1.61
2018-11-28T19:27:46.711Z,1.60
2018-11-28T19:30:20.445Z,1.59
2018-11-28T19:32:48.901Z,1.56
2018-11-28T19:35:17.304Z,1.54
2018-11-28T19:37:45.768Z,1.57
2018-11-28T19:40:21.739Z,1.60
2018-11-28T19:42:50.325Z,1.63
2018-11-28T19:45:18.708Z,1.60
2018-11-28T19:47:47.068Z,1.60
2018-11-28T19:50:20.087Z,1.60
2018-11-28T19:52:48.527Z,1.60
2018-11-28T19:55:16.907Z,1.62
2018-11-28T19:57:45.295Z,1.55
2018-11-28T20:00:15.653Z,1.42
2018-11-28T20:02:44.637Z,1.28
2018-11-28T20:05:15.207Z,1.15
2018-11-28T20:07:48.978Z,1.06
2018-11-28T20:10:18.579Z,0.94
2018-11-28T20:12:47.060Z,0.86
2018-11-28T20:15:17.672Z,0.79
2018-11-28T20:17:46.173Z,0.73
2018-11-28T20:20:15.555Z,0.66
2018-11-28T20:22:43.981Z,0.60
2018-11-28T20:25:17.232Z,0.57
2018-11-28T20:27:47.172Z,0.52
2018-11-28T20:30:17.043Z,0.49
2018-11-28T20:32:45.431Z,0.48
2018-11-28T20:35:13.842Z,0.45
2018-11-28T20:37:42.615Z,0.41
2018-11-28T20:40:16.123Z,0.39
2018-11-28T20:42:46.971Z,0.37
2018-11-28T20:45:15.565Z,0.34
2018-11-28T20:47:44.031Z,0.33
2018-11-28T20:50:22.024Z,0.31
2018-11-28T20:52:55.020Z,0.28
2018-11-28T20:55:21.381Z,0.24
2018-11-28T20:57:49.773Z,0.21
2018-11-28T21:00:21.361Z,0.20
2018-11-28T21:02:49.874Z,0.17
2018-11-28T21:05:18.252Z,0.17
2018-11-28T21:07:46.622Z,0.14
2018-11-28T21:10:21.171Z,0.13
2018-11-28T21:12:49.672Z,0.09
2018-11-28T21:15:18.123Z,0.06
2018-11-28T21:17:46.991Z,0.04
2018-11-28T21:20:16.426Z,0.03
2018-11-28T21:22:47.435Z,0.02
2018-11-28T21:25:15.853Z,0.01
2018-11-28T21:27:44.300Z,0.01
2018-11-28T21:30:14.127Z,-0.01
2018-11-28T21:32:42.622Z,-0.02
2018-11-28T21:35:12.732Z,-0.02
2018-11-28T21:37:41.208Z,-0.03
2018-11-28T21:40:10.233Z,-0.04
2018-11-28T21:42:38.634Z,-0.05
2018-11-28T21:45:09.557Z,-0.06
2018-11-28T21:47:37.995Z,-0.07
2018-11-28T21:50:08.658Z,-0.07
2018-11-28T21:52:37.031Z,-0.06
2018-11-28T21:55:06.534Z,-0.07
2018-11-28T21:57:34.891Z,-0.07
2018-11-28T22:00:03.342Z,-0.07
2018-11-28T22:02:31.765Z,-0.08
2018-11-28T22:05:00.155Z,-0.09
2018-11-28T22:07:28.519Z,-0.11
2018-11-28T22:09:56.915Z,-0.09
2018-11-28T22:12:25.270Z,-0.09
2018-11-28T22:14:53.675Z,-0.10
2018-11-28T22:17:22.039Z,-0.09
2018-11-28T22:19:50.412Z,-0.09
2018-11-28T22:22:18.815Z,-0.09
2018-11-28T22:24:47.270Z,-0.09
2018-11-28T22:27:15.684Z,-0.10
2018-11-28T22:29:44.042Z,-0.10
2018-11-28T22:32:12.564Z,-0.10
2018-11-28T22:34:40.940Z,-0.11
2018-11-28T22:37:09.423Z,-0.12
2018-11-28T22:39:37.868Z,-0.12
2018-11-28T22:42:06.475Z,-0.12
2018-11-28T22:44:34.936Z,-0.13
2018-11-28T22:47:03.336Z,-0.14
2018-11-28T22:49:31.691Z,-0.12
2018-11-28T22:52:00.076Z,-0.12
2018-11-28T22:54:28.434Z,-0.12
2018-11-28T22:56:56.846Z,-0.13
2018-11-28T22:59:25.213Z,-0.13
2018-11-28T23:03:00.324Z,-0.14
2018-11-28T23:05:32.748Z,-0.16
2018-11-28T23:08:02.052Z,-0.16
2018-11-28T23:10:30.514Z,-0.18
2018-11-28T23:12:58.918Z,-0.19
2018-11-28T23:15:27.398Z,-0.20
2018-11-28T23:17:55.875Z,-0.20
2018-11-28T23:20:24.339Z,-0.23
2018-11-28T23:22:52.736Z,-0.25
2018-11-28T23:25:21.205Z,-0.24
2018-11-28T23:27:49.604Z,-0.24
2018-11-28T23:30:19.812Z,-0.25
2018-11-28T23:32:49.012Z,-0.25
2018-11-28T23:35:17.795Z,-0.26
2018-11-28T23:37:47.418Z,-0.29
2018-11-28T23:40:23.823Z,-0.29
2018-11-28T23:42:52.971Z,-0.31
2018-11-28T23:45:21.566Z,-0.32
2018-11-28T23:47:50.146Z,-0.33
2018-11-28T23:50:22.316Z,-0.34
2018-11-28T23:52:51.551Z,-0.34
2018-11-28T23:55:20.803Z,-0.34
2018-11-28T23:57:49.295Z,-0.35
